createdAt,value
2023-04-01T00:02:56.429Z,97483.77
2023-04-01T00:06:55.779Z,97491.09
2023-04-01T00:10:54.487Z,97489.91
2023-04-01T00:14:52.451Z,97491.10
2023-04-01T00:18:50.367Z,97491.16
2023-04-01T00:22:48.352Z,97484.65
2023-04-01T00:26:46.388Z,97479.29
2023-04-01T00:30:44.321Z,97473.39
2023-04-01T00:34:42.349Z,97470.50
2023-04-01T00:38:40.337Z,97471.58
2023-04-01T00:42:38.329Z,97472.55
2023-04-01T00:46:36.362Z,97474.49
2023-04-01T00:50:34.403Z,97465.98
2023-04-01T00:54:35.430Z,97463.35
2023-04-01T00:58:37.392Z,97470.16
2023-04-01T01:02:35.363Z,97466.28
2023-04-01T01:07:02.314Z,97457.59
2023-04-01T01:11:05.323Z,97450.52
2023-04-01T01:15:10.360Z,97454.35
2023-04-01T01:19:14.232Z,97445.52
2023-04-01T01:23:16.359Z,97437.25
2023-04-01T01:27:23.248Z,97436.45
2023-04-01T01:31:39.249Z,97431.03
2023-04-01T01:35:47.259Z,97432.21
2023-04-01T01:39:48.333Z,97428.64
2023-04-01T01:43:51.222Z,97431.09
2023-04-01T01:47:51.268Z,97422.91
2023-04-01T01:51:50.231Z,97421.04
2023-04-01T01:55:54.241Z,97417.17
2023-04-01T01:59:55.212Z,97414.32
2023-04-01T02:03:55.348Z,97413.79
2023-04-01T02:07:55.255Z,97410.22
2023-04-01T02:12:03.191Z,97415.70
2023-04-01T02:16:07.228Z,97406.68
2023-04-01T02:20:13.286Z,97401.89
2023-04-01T02:24:14.173Z,97407.98
2023-04-01T02:28:14.172Z,97407.34
2023-04-01T02:32:14.175Z,97395.04
2023-04-01T02:36:13.354Z,97390.35
2023-04-01T02:40:16.278Z,97392.87
2023-04-01T02:44:14.148Z,97391.93
2023-04-01T02:48:12.132Z,97391.48
2023-04-01T02:52:10.176Z,97388.65
2023-04-01T02:56:08.108Z,97392.73
2023-04-01T03:00:06.187Z,97399.96
2023-04-01T03:04:04.069Z,97402.32
2023-04-01T03:08:02.228Z,97397.29
2023-04-01T03:12:00.149Z,97397.27
2023-04-01T03:15:59.209Z,97401.37
2023-04-01T03:19:57.117Z,97403.34
2023-04-01T03:23:55.270Z,97405.92
2023-04-01T03:27:55.438Z,97406.54
2023-04-01T03:31:53.162Z,97413.92
2023-04-01T03:35:51.136Z,97420.54
2023-04-01T03:39:49.117Z,97422.55
2023-04-01T03:43:47.094Z,97435.88
2023-04-01T03:47:45.276Z,97436.11
2023-04-01T03:51:43.157Z,97437.98
2023-04-01T03:55:41.131Z,97442.73
2023-04-01T03:59:40.142Z,97443.02
2023-04-01T04:03:38.160Z,97445.16
2023-04-01T04:07:36.136Z,97448.09
2023-04-01T04:11:35.105Z,97451.78
2023-04-01T04:15:33.173Z,97452.67
2023-04-01T04:19:32.189Z,97452.70
2023-04-01T04:23:30.039Z,97460.58
2023-04-01T04:27:28.048Z,97462.32
2023-04-01T04:31:35.128Z,97458.77
2023-04-01T04:35:33.193Z,97450.07
2023-04-01T04:39:30.969Z,97449.58
2023-04-01T04:43:31.045Z,97447.98
2023-04-01T04:47:29.099Z,97442.33
2023-04-01T04:51:32.023Z,97447.73
2023-04-01T04:55:29.976Z,97448.19
2023-04-01T04:59:42.985Z,97450.54
2023-04-01T05:03:48.083Z,97454.38
2023-04-01T05:07:45.956Z,97454.95
2023-04-01T05:11:43.996Z,97461.40
2023-04-01T05:15:42.998Z,97465.81
2023-04-01T05:19:40.982Z,97465.59
2023-04-01T05:23:39.084Z,97467.64
2023-04-01T05:27:36.921Z,97462.99
2023-04-01T05:31:34.952Z,97463.02
2023-04-01T05:35:33.319Z,97469.38
2023-04-01T05:39:30.925Z,97471.34
2023-04-01T05:43:28.911Z,97468.19
2023-04-01T05:47:31.963Z,97467.51
2023-04-01T05:51:30.884Z,97467.52
2023-04-01T05:55:29.904Z,97470.09
2023-04-01T05:59:28.928Z,97473.09
2023-04-01T06:03:27.181Z,97472.21
2023-04-01T06:07:32.879Z,97466.95
2023-04-01T06:11:55.891Z,97469.30
2023-04-01T06:16:05.891Z,97468.58
2023-04-01T06:20:28.055Z,97467.31
2023-04-01T06:24:29.845Z,97470.52
2023-04-01T06:28:40.897Z,97477.58
2023-04-01T06:32:56.060Z,97479.13
2023-04-01T06:37:02.908Z,97479.62
2023-04-01T06:41:12.825Z,97478.44
2023-04-01T06:45:19.858Z,97476.61
2023-04-01T06:50:10.808Z,97480.23
2023-04-01T06:54:38.857Z,97484.19
2023-04-01T06:59:07.859Z,97488.67
2023-04-01T07:03:21.822Z,97494.34
2023-04-01T07:07:43.056Z,97497.85
2023-04-01T07:11:44.834Z,97499.04
2023-04-01T07:16:20.818Z,97506.09
2023-04-01T07:20:21.832Z,97507.81
2023-04-01T07:24:29.785Z,97509.92
2023-04-01T07:28:31.782Z,97511.13
2023-04-01T07:33:03.799Z,97505.15
2023-04-01T07:37:08.775Z,97503.48
2023-04-01T07:41:38.914Z,97503.61
2023-04-01T07:45:50.855Z,97502.01
2023-04-01T07:50:14.773Z,97508.06
2023-04-01T07:54:34.875Z,97509.48
2023-04-01T07:58:51.920Z,97513.48
2023-04-01T08:03:33.039Z,97513.47
2023-04-01T08:07:45.699Z,97513.14
2023-04-01T08:12:08.726Z,97509.75
2023-04-01T08:17:05.716Z,97505.91
2023-04-01T08:21:14.751Z,97502.41
2023-04-01T08:25:16.827Z,97503.52
2023-04-01T08:29:24.787Z,97507.02
2023-04-01T08:33:37.770Z,97511.62
2023-04-01T08:37:49.879Z,97510.83
2023-04-01T08:42:08.695Z,97511.64
2023-04-01T08:46:36.788Z,97509.39
2023-04-01T08:51:16.839Z,97514.06
2023-04-01T08:55:37.729Z,97508.27
2023-04-01T08:59:59.688Z,97508.03
2023-04-01T09:04:43.740Z,97505.59
2023-04-01T09:08:45.688Z,97508.54
2023-04-01T09:12:53.671Z,97512.34
2023-04-01T09:17:13.702Z,97508.36
2023-04-01T09:21:25.684Z,97507.98
2023-04-01T09:25:53.696Z,97514.41
2023-04-01T09:29:58.747Z,97515.13
2023-04-01T09:34:22.689Z,97507.08
2023-04-01T09:38:44.683Z,97507.00
2023-04-01T09:43:11.644Z,97508.23
2023-04-01T09:47:37.682Z,97509.06
2023-04-01T09:51:41.658Z,97514.85
2023-04-01T09:56:17.722Z,97511.84
2023-04-01T10:00:33.609Z,97515.34
2023-04-01T10:04:40.638Z,97516.22
2023-04-01T10:09:00.622Z,97520.70
2023-04-01T10:13:26.611Z,97513.77
2023-04-01T10:17:40.642Z,97514.10
2023-04-01T10:22:12.722Z,97521.79
2023-04-01T10:26:38.742Z,97522.04
2023-04-01T10:31:30.732Z,97522.33
2023-04-01T10:36:05.680Z,97528.18
2023-04-01T10:40:12.586Z,97528.64
2023-04-01T10:44:46.589Z,97517.21
2023-04-01T10:49:11.627Z,97517.25
2023-04-01T10:53:16.208Z,97511.74
2023-04-01T10:58:21.552Z,97512.88
2023-04-01T11:02:39.713Z,97516.23
2023-04-01T11:07:15.608Z,97514.50
2023-04-01T11:11:45.526Z,97518.88
2023-04-01T11:15:55.629Z,97526.53
2023-04-01T11:20:17.525Z,97524.20
2023-04-01T11:24:50.566Z,97529.08
2023-04-01T11:29:25.509Z,97527.85
2023-04-01T11:33:38.592Z,97525.33
2023-04-01T11:37:52.530Z,97526.34
2023-04-01T11:42:55.540Z,97523.54
2023-04-01T11:47:41.596Z,97530.35
2023-04-01T11:51:58.665Z,97530.17
2023-04-01T11:56:07.877Z,97531.07
2023-04-01T12:00:33.519Z,97531.06
2023-04-01T12:05:09.502Z,97533.54
2023-04-01T12:09:20.591Z,97538.16
2023-04-01T12:13:30.555Z,97546.55
2023-04-01T12:18:04.576Z,97549.27
2023-04-01T12:22:20.611Z,97556.45
2023-04-01T12:26:42.521Z,97555.52
2023-04-01T12:31:06.459Z,97562.73
2023-04-01T12:35:15.663Z,97557.86
2023-04-01T12:39:26.522Z,97553.26
2023-04-01T12:43:39.455Z,97553.73
2023-04-01T12:47:45.476Z,97550.66
2023-04-01T12:52:03.446Z,97555.46
2023-04-01T12:56:01.551Z,97556.17
2023-04-01T13:00:26.436Z,97557.43
2023-04-01T13:04:52.425Z,97558.66
2023-04-01T13:09:36.442Z,97564.01
2023-04-01T13:13:49.384Z,97569.52
2023-04-01T13:18:01.501Z,97565.69
2023-04-01T13:22:20.400Z,97569.34
2023-04-01T13:26:36.401Z,97568.91
2023-04-01T13:30:49.495Z,97567.39
2023-04-01T13:35:20.443Z,97568.84
2023-04-01T13:39:38.490Z,97571.95
2023-04-01T13:43:42.435Z,97567.16
2023-04-01T13:48:07.425Z,97570.98
2023-04-01T13:52:19.400Z,97572.47
2023-04-01T13:56:41.410Z,97577.80
2023-04-01T14:00:58.419Z,97581.86
2023-04-01T14:05:05.378Z,97593.08
2023-04-01T14:09:50.471Z,97599.39
2023-04-01T14:14:25.338Z,97600.13
2023-04-01T14:18:33.379Z,97600.69
2023-04-01T14:23:08.329Z,97601.52
2023-04-01T14:27:06.553Z,97596.45
2023-04-01T14:31:25.382Z,97596.30
2023-04-01T14:35:35.659Z,97595.12
2023-04-01T14:40:03.347Z,97595.05
2023-04-01T14:44:38.415Z,97595.94
2023-04-01T14:49:06.307Z,97598.08
2023-04-01T14:53:13.300Z,97598.27
2023-04-01T14:57:39.293Z,97604.33
2023-04-01T15:02:01.332Z,97605.70
2023-04-01T15:06:14.293Z,97606.88
2023-04-01T15:10:32.320Z,97610.23
2023-04-01T15:14:46.278Z,97615.07
2023-04-01T15:19:05.276Z,97614.30
2023-04-01T15:23:25.342Z,97615.41
2023-04-01T15:27:38.287Z,97614.52
2023-04-01T15:32:09.249Z,97616.81
2023-04-01T15:36:32.315Z,97619.93
2023-04-01T15:40:43.250Z,97623.21
2023-04-01T15:45:00.352Z,97628.41
2023-04-01T15:49:32.308Z,97632.14
2023-04-01T15:53:47.303Z,97636.46
2023-04-01T15:58:02.197Z,97641.98
2023-04-01T16:02:12.351Z,97647.83
2023-04-01T16:06:33.242Z,97651.87
2023-04-01T16:11:06.332Z,97652.05
2023-04-01T16:15:49.210Z,97653.86
2023-04-01T16:20:05.228Z,97656.86
2023-04-01T16:24:11.186Z,97660.42
2023-04-01T16:28:31.200Z,97661.23
2023-04-01T16:33:01.278Z,97667.38
2023-04-01T16:37:37.183Z,97669.71
2023-04-01T16:41:41.171Z,97675.84
2023-04-01T16:45:55.332Z,97677.33
2023-04-01T16:50:15.145Z,97683.86
2023-04-01T16:54:19.215Z,97690.40
2023-04-01T16:58:17.324Z,97694.14
2023-04-01T17:02:18.227Z,97698.05
2023-04-01T17:06:36.144Z,97697.82
2023-04-01T17:10:53.224Z,97699.66
2023-04-01T17:15:25.327Z,97704.63
2023-04-01T17:19:35.138Z,97708.65
2023-04-01T17:23:43.128Z,97701.95
2023-04-01T17:27:59.146Z,97700.65
2023-04-01T17:32:08.152Z,97697.08
2023-04-01T17:36:24.131Z,97700.84
2023-04-01T17:40:35.496Z,97706.73
2023-04-01T17:45:02.246Z,97715.05
2023-04-01T17:49:27.088Z,97721.95
2023-04-01T17:53:51.103Z,97734.09
2023-04-01T17:58:02.082Z,97744.17
2023-04-01T18:02:22.229Z,97746.08
2023-04-01T18:06:30.043Z,97751.17
2023-04-01T18:10:44.111Z,97753.46
2023-04-01T18:15:07.044Z,97758.55
2023-04-01T18:19:29.115Z,97760.70
2023-04-01T18:24:02.890Z,97764.08
2023-04-01T18:28:15.065Z,97767.41
2023-04-01T18:32:49.102Z,97771.70
2023-04-01T18:37:07.110Z,97772.18
2023-04-01T18:41:18.050Z,97776.29
2023-04-01T18:45:30.122Z,97773.16
2023-04-01T18:49:59.044Z,97774.99
2023-04-01T18:54:46.044Z,97775.64
2023-04-01T18:58:59.003Z,97780.52
2023-04-01T19:03:04.168Z,97788.61
2023-04-01T19:07:11.991Z,97786.13
2023-04-01T19:11:12.171Z,97788.23
2023-04-01T19:15:18.985Z,97795.21
2023-04-01T19:19:19.054Z,97802.63
2023-04-01T19:23:58.001Z,97809.39
2023-04-01T19:28:08.059Z,97811.22
2023-04-01T19:32:11.990Z,97809.04
2023-04-01T19:36:33.008Z,97815.00
2023-04-01T19:40:52.996Z,97820.80
2023-04-01T19:45:33.064Z,97824.95
2023-04-01T19:49:58.079Z,97825.99
2023-04-01T19:54:17.050Z,97830.94
2023-04-01T19:58:27.026Z,97833.27
2023-04-01T20:02:25.068Z,97837.59
2023-04-01T20:06:26.953Z,97845.52
2023-04-01T20:11:14.084Z,97849.67
2023-04-01T20:15:18.020Z,97847.39
2023-04-01T20:19:20.915Z,97850.71
2023-04-01T20:23:33.931Z,97855.52
2023-04-01T20:27:38.975Z,97856.96
2023-04-01T20:32:04.140Z,97862.27
2023-04-01T20:36:26.916Z,97865.89
2023-04-01T20:40:50.885Z,97868.16
2023-04-01T20:44:55.024Z,97868.49
2023-04-01T20:49:07.067Z,97874.20
2023-04-01T20:53:19.903Z,97882.65
2023-04-01T20:57:35.012Z,97887.88
2023-04-01T21:01:45.406Z,97897.80
2023-04-01T21:06:00.865Z,97896.73
2023-04-01T21:10:11.859Z,97902.68
2023-04-01T21:15:00.921Z,97903.90
2023-04-01T21:19:22.944Z,97910.04
2023-04-01T21:23:49.791Z,97917.29
2023-04-01T21:28:02.874Z,97917.99
2023-04-01T21:32:09.924Z,97919.98
2023-04-01T21:36:17.968Z,97920.11
2023-04-01T21:41:05.784Z,97923.98
2023-04-01T21:45:32.170Z,97926.73
2023-04-01T21:49:50.793Z,97932.11
2023-04-01T21:54:09.860Z,97938.75
2023-04-01T21:58:46.857Z,97941.59
2023-04-01T22:02:56.831Z,97952.08
2023-04-01T22:07:04.783Z,97958.75
2023-04-01T22:11:14.799Z,97962.64
2023-04-01T22:15:42.769Z,97964.69
2023-04-01T22:20:16.784Z,97968.48
2023-04-01T22:24:32.795Z,97975.98
2023-04-01T22:28:42.860Z,97974.33
2023-04-01T22:33:00.779Z,97980.98
2023-04-01T22:37:36.774Z,97979.80
2023-04-01T22:42:03.734Z,97991.02
2023-04-01T22:46:24.879Z,97995.66
2023-04-01T22:50:39.739Z,97995.27
2023-04-01T22:54:49.787Z,97988.47
2023-04-01T22:58:53.732Z,97993.94
2023-04-01T23:02:54.760Z,97995.64
2023-04-01T23:06:56.674Z,98000.17
2023-04-01T23:11:07.717Z,97995.33
2023-04-01T23:15:09.690Z,97996.58
2023-04-01T23:19:13.711Z,97999.27
2023-04-01T23:23:23.700Z,98009.02
2023-04-01T23:27:30.688Z,98015.05
2023-04-01T23:31:48.754Z,98025.30
2023-04-01T23:35:46.833Z,98027.33
2023-04-01T23:39:51.746Z,98036.64
2023-04-01T23:43:54.678Z,98034.98
2023-04-01T23:47:54.728Z,98049.38
2023-04-01T23:52:03.713Z,98050.90
2023-04-01T23:56:01.693Z,98054.58
